Quata, Brazil
Current Conditions -  °F | °C
As of 8:00 AM on Monday 20 Oct 2014 (Local Time) from SBDN Reporting Station
Scattered Clouds Scattered Clouds  
Wind Chill: 72°   Ceiling: Unl
Heat Index: 72°   Visibility: 6mi
Dew Point: 66°   Wind: 8mph
Humidity: 83%   Direction: 150°SSE
Pressure: 29.97"   Gusts: NA
Location:  22.25°S, 50.7°W
Report Text: SBDN 201100Z 15007KT 9000 FEW040 SCT080 22/19 Q1015
Loading
Personal Weather Stations






























Interactive Weather Map New forecast layout! Learn more

10-Day Weather Forecast

Advertisements
Track Severe Weather on mobile